Weather at Arnprior Airport

Public forecast

Using degrees Celsius for public forecast. Weather courtesy of forecast.io.

Closest aviation weather report (METAR) to Arnprior Airport

Closest report is Ottawa Macdonald-Cartier International Airport, 29.9 nm (55.4 km) E.

2024/05/25 04:00 (retrieved 29 minutes ago)

CYOW 250400Z 32006KT 15SM FEW250 11/08 A2991 RMK CI2 SLP133

Closest aviation forecast (TAF) to Arnprior Airport

Forecast is more than 12 hours old.

Closest forecast is Ottawa / Gatineau Airport, 34.4 nm (63.7 km) E.

2024/05/24 13:42 (retrieved 15 hours ago)

TAF CYND 241240Z 2413/2501 30013G23KT P6SM BKN030 TEMPO 2414/2418 FEW030 FM241800 30012G22KT P6SM FEW040 BECMG 2422/2424 34007KT RMK NXT FCST BY 241800Z